Osgood, IN

09:35 PM EST dna 05 Marec, 2015 (GMT -0500)
APRSWXNET Osgood IN US | Change Station
CLOSE
Current Station
Personal Weather Stations
Location: Osgood, IN
Nad. výška:: 935 ft
Najbližšie meteo stanice

Elev 935 ft 39.13 °N, 85.29 °W | Updated 33 minutes ago

Jasno
Jasno
10 °F
Feels Like 10 °F
N
0
Vietor meniaci sa Vietor from SZ
Gusts 0.0 mph

Dnes
High -- | Low -- °F
--% Chance of Precip.
Yesterday
High -- | Low -- °F
Precip. -- in
7:08 AM 6:37 PM
Spln, 100% visible
Tlak 30.55 in
Viditeľnosť 10.0 mile
Oblačnost Jasno
Pocitová teplota 10 °F
Rosný bod 5 °F
Vlhkosť 81%
Rainfall in
Výška snehu Not available.
UV 0 out of 12
Pollen .70 out of 12
Air Quality Not available.
Flu Activity Not available.
METAR KBAK 060145Z 33006KT 10SM SKC M09/M16 A3055

More Conditions Fewer Conditions

Tlak 30.55 in
Viditeľnosť 10.0 mile
Oblačnost Jasno
Pocitová teplota 10 °F
Rosný bod 5 °F
Vlhkosť 81%
Rainfall in
Výška snehu Not available.
UV 0 out of 12
Pollen .70 out of 12
Air Quality Not available.
Flu Activity Not available.
METAR KBAK 060145Z 33006KT 10SM SKC M09/M16 A3055

More Conditions Fewer Conditions

10-Day Weather Forecast

Almanac

Astronómia

Mar. 05, 2015 Východ Západ
Aktuálny čas
Civil Twilight
Nautical Twilight
Astronomical Twilight
Mesiac
Length Of Visible Light
Dĺžka dňa
Tomorrow will be .
, % of the Moon is Illuminated

Today's Extremes

State Highs State Lows

Community

WunderPhotos

Upload Photos

1,803,126 photos uploaded!

WunderBlogs® & News

Nearby

Air Quality

  Air Quality AQ Index Pollutant
Not available.

Výska snehu

Station Depth Nad. výška:

Aktivita zemetrasenia

Mesto Distance Mag. Time & Date
Minimum magnitude displayed is 2.5.

Coastal Water Temperatures

Miesto Teplota

Najbližšie meteo stanice